Time,TemperatureF,DewpointF,PressureIn,WindDirection,WindDirectionDegrees,WindSpeedMPH,WindSpeedGustMPH,Humidity,HourlyPrecipIn,Conditions,Clouds,dailyrainin,SoftwareType,DateUTC
2013-04-06 00:00:00,42.7,35.3,30.18,North,351,4.0,5.0,75,0.00,,,0.00,Wunderground v.1.15,2013-04-06 04:00:00,
2013-04-06 00:01:00,42.7,35.3,30.18,North,351,4.0,5.0,75,0.00,,,0.00,Wunderground v.1.15,2013-04-06 04:01:00,
2013-04-06 00:02:00,42.8,35.4,30.18,North,350,4.0,5.0,75,0.00,,,0.00,Wunderground v.1.15,2013-04-06 04:02:00,
2013-04-06 00:04:00,43.0,35.6,30.18,North,355,4.0,5.0,75,0.00,,,0.00,Wunderground v.1.15,2013-04-06 04:04:00,
2013-04-06 00:09:00,43.5,35.8,30.18,NNW,348,3.0,5.0,74,0.00,,,0.00,Wunderground v.1.15,2013-04-06 04:09:00,
2013-04-06 00:15:00,41.9,34.9,30.18,ENE,59,1.0,2.0,76,0.00,,,0.00,Wunderground v.1.15,2013-04-06 04:15:00,
2013-04-06 00:20:00,40.4,34.7,30.19,ENE,59,0.0,1.0,80,0.00,,,0.00,Wunderground v.1.15,2013-04-06 04:20:00,
2013-04-06 00:26:00,39.7,34.7,30.19,ENE,61,1.0,1.0,82,0.00,,,0.00,Wunderground v.1.15,2013-04-06 04:26:00,
2013-04-06 00:31:00,39.6,34.9,30.19,SE,132,1.0,2.0,83,0.00,,,0.00,Wunderground v.1.15,2013-04-06 04:31:00,
2013-04-06 00:37:00,39.3,34.6,30.19,SE,135,1.0,4.0,83,0.00,,,0.00,Wunderground v.1.15,2013-04-06 04:37:00,
2013-04-06 00:42:00,39.6,34.6,30.19,WSW,240,1.0,2.0,82,0.00,,,0.00,Wunderground v.1.15,2013-04-06 04:42:00,
2013-04-06 00:48:00,40.0,34.6,30.19,WSW,240,1.0,2.0,81,0.00,,,0.00,Wunderground v.1.15,2013-04-06 04:48:00,
2013-04-06 00:53:00,40.7,35.0,30.19,West,276,1.0,5.0,80,0.00,,,0.00,Wunderground v.1.15,2013-04-06 04:53:00,
2013-04-06 00:58:00,40.8,35.1,30.19,North,9,2.0,5.0,80,0.00,,,0.00,Wunderground v.1.15,2013-04-06 04:58:00,
2013-04-06 01:04:00,42.4,35.0,30.19,NE,37,3.0,6.0,75,0.00,,,0.00,Wunderground v.1.15,2013-04-06 05:04:00,
2013-04-06 01:10:00,43.5,35.1,30.19,SW,218,4.0,4.0,72,0.00,,,0.00,Wunderground v.1.15,2013-04-06 05:10:00,
2013-04-06 01:15:00,42.4,34.7,30.19,SSW,204,4.0,6.0,74,0.00,,,0.00,Wunderground v.1.15,2013-04-06 05:15:00,
2013-04-06 01:21:00,41.8,34.5,30.20,SSE,149,2.0,6.0,75,0.00,,,0.00,Wunderground v.1.15,2013-04-06 05:21:00,
2013-04-06 01:26:00,41.9,34.6,30.20,WSW,246,2.0,6.0,75,0.00,,,0.00,Wunderground v.1.15,2013-04-06 05:26:00,
2013-04-06 01:32:00,42.6,34.5,30.20,NNW,335,1.0,6.0,73,0.00,,,0.00,Wunderground v.1.15,2013-04-06 05:32:00,
2013-04-06 01:37:00,44.0,34.8,30.20,NW,321,2.0,6.0,70,0.00,,,0.00,Wunderground v.1.15,2013-04-06 05:37:00,
2013-04-06 01:42:00,44.7,34.8,30.20,WNW,286,3.0,6.0,68,0.00,,,0.00,Wunderground v.1.15,2013-04-06 05:42:00,
2013-04-06 01:49:00,44.8,34.1,30.20,SSW,192,2.0,6.0,66,0.00,,,0.00,Wunderground v.1.15,2013-04-06 05:49:00,
2013-04-06 01:54:00,46.2,34.7,30.20,NNW,347,3.0,6.0,64,0.00,,,0.00,Wunderground v.1.15,2013-04-06 05:54:00,
2013-04-06 02:00:00,46.8,34.9,30.20,WNW,301,3.0,3.0,63,0.00,,,0.00,Wunderground v.1.15,2013-04-06 06:00:00,
2013-04-06 02:05:00,47.9,34.7,30.20,NNW,338,4.0,8.0,60,0.00,,,0.00,Wunderground v.1.15,2013-04-06 06:05:00,
2013-04-06 02:10:00,47.9,34.7,30.20,NNE,15,5.0,5.0,60,0.00,,,0.00,Wunderground v.1.15,2013-04-06 06:10:00,
2013-04-06 02:16:00,48.5,34.4,30.20,NW,311,4.0,10.0,58,0.00,,,0.00,Wunderground v.1.15,2013-04-06 06:16:00,
2013-04-06 02:21:00,47.7,34.1,30.20,NNW,343,4.0,9.0,59,0.00,,,0.00,Wunderground v.1.15,2013-04-06 06:21:00,
2013-04-06 02:27:00,48.1,34.4,30.20,NNW,336,4.0,9.0,59,0.00,,,0.00,Wunderground v.1.15,2013-04-06 06:27:00,
2013-04-06 02:33:00,48.6,34.0,30.20,NNW,339,5.0,7.0,57,0.00,,,0.00,Wunderground v.1.15,2013-04-06 06:33:00,
2013-04-06 02:38:00,48.8,33.3,30.20,NW,315,5.0,9.0,55,0.00,,,0.00,Wunderground v.1.15,2013-04-06 06:38:00,
2013-04-06 02:44:00,48.7,33.7,30.20,NW,307,4.0,6.0,56,0.00,,,0.00,Wunderground v.1.15,2013-04-06 06:44:00,
2013-04-06 02:50:00,48.4,33.4,30.20,North,360,4.0,9.0,56,0.00,,,0.00,Wunderground v.1.15,2013-04-06 06:50:00,
2013-04-06 02:55:00,49.1,33.2,30.20,North,9,5.0,7.0,54,0.00,,,0.00,Wunderground v.1.15,2013-04-06 06:55:00,
2013-04-06 03:01:00,49.0,33.5,30.19,NW,309,5.0,6.0,55,0.00,,,0.00,Wunderground v.1.15,2013-04-06 07:01:00,
2013-04-06 03:07:00,48.8,33.3,30.19,NW,321,4.0,8.0,55,0.00,,,0.00,Wunderground v.1.15,2013-04-06 07:07:00,
2013-04-06 03:12:00,48.7,33.2,30.19,NNW,346,4.0,6.0,55,0.00,,,0.00,Wunderground v.1.15,2013-04-06 07:12:00,
2013-04-06 03:19:00,48.1,33.1,30.19,NW,309,1.0,6.0,56,0.00,,,0.00,Wunderground v.1.15,2013-04-06 07:19:00,
2013-04-06 03:24:00,47.7,33.2,30.20,NW,315,1.0,6.0,57,0.00,,,0.00,Wunderground v.1.15,2013-04-06 07:24:00,
2013-04-06 03:30:00,47.3,33.3,30.20,West,264,1.0,6.0,58,0.00,,,0.00,Wunderground v.1.15,2013-04-06 07:30:00,
2013-04-06 03:35:00,46.7,33.1,30.20,West,264,0.0,6.0,59,0.00,,,0.00,Wunderground v.1.15,2013-04-06 07:35:00,
2013-04-06 03:40:00,46.1,32.6,30.19,West,264,0.0,6.0,59,0.00,,,0.00,Wunderground v.1.15,2013-04-06 07:40:00,
2013-04-06 03:46:00,46.0,32.9,30.20,SSW,196,0.0,6.0,60,0.00,,,0.00,Wunderground v.1.15,2013-04-06 07:46:00,
2013-04-06 03:52:00,45.4,32.7,30.20,SW,236,1.0,6.0,61,0.00,,,0.00,Wunderground v.1.15,2013-04-06 07:52:00,
2013-04-06 03:59:00,45.2,32.5,30.20,West,277,1.0,6.0,61,0.00,,,0.00,Wunderground v.1.15,2013-04-06 07:59:00,
2013-04-06 04:04:00,44.2,32.8,30.20,SSW,202,1.0,6.0,64,0.00,,,0.00,Wunderground v.1.15,2013-04-06 08:04:00,
2013-04-06 04:10:00,43.2,32.2,30.21,WNW,285,1.0,1.0,65,0.00,,,0.00,Wunderground v.1.15,2013-04-06 08:10:00,
2013-04-06 04:15:00,43.4,33.2,30.21,SSW,202,0.0,6.0,67,0.00,,,0.00,Wunderground v.1.15,2013-04-06 08:15:00,
2013-04-06 04:20:00,43.3,32.7,30.21,SSW,201,0.0,6.0,66,0.00,,,0.00,Wunderground v.1.15,2013-04-06 08:20:00,
2013-04-06 04:26:00,42.2,32.8,30.21,SE,126,1.0,6.0,69,0.00,,,0.00,Wunderground v.1.15,2013-04-06 08:26:00,
2013-04-06 04:31:00,41.3,32.6,30.21,SE,133,2.0,6.0,71,0.00,,,0.00,Wunderground v.1.15,2013-04-06 08:31:00,
2013-04-06 04:36:00,40.9,32.9,30.21,SE,133,1.0,6.0,73,0.00,,,0.00,Wunderground v.1.15,2013-04-06 08:36:00,
2013-04-06 04:42:00,40.7,32.7,30.20,East,94,1.0,6.0,73,0.00,,,0.00,Wunderground v.1.15,2013-04-06 08:42:00,
2013-04-06 04:47:00,41.4,32.7,30.20,NW,304,2.0,6.0,71,0.00,,,0.00,Wunderground v.1.15,2013-04-06 08:47:00,
2013-04-06 04:53:00,41.3,32.2,30.21,NW,304,1.0,6.0,70,0.00,,,0.00,Wunderground v.1.15,2013-04-06 08:53:00,
2013-04-06 04:58:00,41.8,32.4,30.21,NW,304,0.0,6.0,69,0.00,,,0.00,Wunderground v.1.15,2013-04-06 08:58:00,
2013-04-06 05:03:00,42.2,32.8,30.21,WNW,291,1.0,6.0,69,0.00,,,0.00,Wunderground v.1.15,2013-04-06 09:03:00,
2013-04-06 05:09:00,41.1,32.8,30.21,WNW,291,1.0,6.0,72,0.00,,,0.00,Wunderground v.1.15,2013-04-06 09:09:00,
2013-04-06 05:15:00,40.4,32.4,30.21,ENE,77,1.0,6.0,73,0.00,,,0.00,Wunderground v.1.15,2013-04-06 09:15:00,
2013-04-06 05:20:00,39.8,32.5,30.21,SSE,158,2.0,2.0,75,0.00,,,0.00,Wunderground v.1.15,2013-04-06 09:20:00,
2013-04-06 05:26:00,38.9,32.3,30.22,SSE,156,1.0,6.0,77,0.00,,,0.00,Wunderground v.1.15,2013-04-06 09:26:00,
2013-04-06 05:32:00,38.9,32.3,30.22,SSE,156,1.0,6.0,77,0.00,,,0.00,Wunderground v.1.15,2013-04-06 09:32:00,
2013-04-06 05:37:00,39.0,32.1,30.22,SSE,156,0.0,6.0,76,0.00,,,0.00,Wunderground v.1.15,2013-04-06 09:37:00,
2013-04-06 05:42:00,38.7,32.1,30.23,SSE,156,1.0,6.0,77,0.00,,,0.00,Wunderground v.1.15,2013-04-06 09:42:00,
2013-04-06 05:47:00,38.0,32.1,30.23,SE,138,2.0,6.0,79,0.00,,,0.00,Wunderground v.1.15,2013-04-06 09:47:00,
2013-04-06 05:53:00,37.5,31.9,30.23,ESE,118,2.0,6.0,80,0.00,,,0.00,Wunderground v.1.15,2013-04-06 09:53:00,
2013-04-06 06:00:00,37.7,31.8,30.23,ESE,108,2.0,6.0,79,0.00,,,0.00,Wunderground v.1.15,2013-04-06 10:00:00,
2013-04-06 06:05:00,37.6,32.0,30.23,ESE,108,1.0,6.0,80,0.00,,,0.00,Wunderground v.1.15,2013-04-06 10:05:00,
2013-04-06 06:10:00,37.0,31.7,30.23,ESE,107,1.0,6.0,81,0.00,,,0.00,Wunderground v.1.15,2013-04-06 10:10:00,
2013-04-06 06:16:00,37.3,32.3,30.24,ESE,107,1.0,6.0,82,0.00,,,0.00,Wunderground v.1.15,2013-04-06 10:16:00,
2013-04-06 06:22:00,37.4,32.1,30.24,ESE,107,0.0,6.0,81,0.00,,,0.00,Wunderground v.1.15,2013-04-06 10:22:00,
2013-04-06 06:27:00,37.3,32.0,30.24,ESE,107,0.0,6.0,81,0.00,,,0.00,Wunderground v.1.15,2013-04-06 10:27:00,
2013-04-06 06:33:00,36.7,31.7,30.25,ESE,107,0.0,6.0,82,0.00,,,0.00,Wunderground v.1.15,2013-04-06 10:33:00,
2013-04-06 06:38:00,36.4,31.7,30.25,ESE,107,0.0,6.0,83,0.00,,,0.00,Wunderground v.1.15,2013-04-06 10:38:00,
2013-04-06 06:44:00,36.1,31.4,30.25,ESE,107,0.0,0.0,83,0.00,,,0.00,Wunderground v.1.15,2013-04-06 10:44:00,
2013-04-06 06:49:00,35.8,31.7,30.25,ESE,107,0.0,0.0,85,0.00,,,0.00,Wunderground v.1.15,2013-04-06 10:49:00,
2013-04-06 06:54:00,35.6,31.2,30.26,ESE,107,0.0,0.0,84,0.00,,,0.00,Wunderground v.1.15,2013-04-06 10:54:00,
2013-04-06 07:00:00,35.3,30.9,30.26,ESE,105,0.0,1.0,84,0.00,,,0.00,Wunderground v.1.15,2013-04-06 11:00:00,
2013-04-06 07:05:00,35.1,31.0,30.27,ESE,105,0.0,1.0,85,0.00,,,0.00,Wunderground v.1.15,2013-04-06 11:05:00,
2013-04-06 07:11:00,35.1,31.0,30.27,ESE,105,0.0,0.0,85,0.00,,,0.00,Wunderground v.1.15,2013-04-06 11:11:00,
2013-04-06 07:16:00,34.6,30.8,30.28,ESE,105,0.0,1.0,86,0.00,,,0.00,Wunderground v.1.15,2013-04-06 11:16:00,
2013-04-06 17:00:00,61.7,34.5,30.24,SSE,159,7.0,7.0,36,0.00,,,0.00,Wunderground v.1.15,2013-04-06 21:00:00,
2013-04-06 17:07:00,61.6,32.9,30.24,South,174,6.0,7.0,34,0.00,,,0.00,Wunderground v.1.15,2013-04-06 21:07:00,
2013-04-06 17:12:00,61.5,32.8,30.24,SSE,157,5.0,9.0,34,0.00,,,0.00,Wunderground v.1.15,2013-04-06 21:12:00,
2013-04-06 17:17:00,61.4,33.5,30.24,SSW,196,6.0,10.0,35,0.00,,,0.00,Wunderground v.1.15,2013-04-06 21:17:00,
2013-04-06 17:22:00,61.3,32.7,30.24,SSE,161,6.0,7.0,34,0.00,,,0.00,Wunderground v.1.15,2013-04-06 21:22:00,
2013-04-06 17:29:00,61.3,33.4,30.24,SSE,153,5.0,10.0,35,0.00,,,0.00,Wunderground v.1.15,2013-04-06 21:29:00,
2013-04-06 17:34:00,61.3,33.4,30.24,SSE,155,6.0,9.0,35,0.00,,,0.00,Wunderground v.1.15,2013-04-06 21:34:00,
2013-04-06 17:40:00,61.3,33.4,30.24,SSE,166,6.0,6.0,35,0.00,,,0.00,Wunderground v.1.15,2013-04-06 21:40:00,
2013-04-06 17:45:00,61.3,32.7,30.24,SSE,165,7.0,9.0,34,0.00,,,0.00,Wunderground v.1.15,2013-04-06 21:45:00,
2013-04-06 17:50:00,61.4,33.5,30.24,SE,142,7.0,14.0,35,0.00,,,0.00,Wunderground v.1.15,2013-04-06 21:50:00,
2013-04-06 17:56:00,61.1,31.8,30.24,SE,146,8.0,14.0,33,0.00,,,0.00,Wunderground v.1.15,2013-04-06 21:56:00,
2013-04-06 18:01:00,60.9,32.3,30.24,SE,134,8.0,10.0,34,0.00,,,0.00,Wunderground v.1.15,2013-04-06 22:01:00,
2013-04-06 18:06:00,60.9,32.3,30.24,SE,146,8.0,10.0,34,0.00,,,0.00,Wunderground v.1.15,2013-04-06 22:06:00,
2013-04-06 18:11:00,60.8,33.0,30.25,SSE,148,7.0,9.0,35,0.00,,,0.00,Wunderground v.1.15,2013-04-06 22:11:00,
2013-04-06 18:17:00,60.8,32.2,30.25,ESE,123,7.0,10.0,34,0.00,,,0.00,Wunderground v.1.15,2013-04-06 22:17:00,
2013-04-06 18:22:00,60.9,33.7,30.25,SSE,148,7.0,9.0,36,0.00,,,0.00,Wunderground v.1.15,2013-04-06 22:22:00,
2013-04-06 18:27:00,60.8,32.2,30.25,South,178,8.0,11.0,34,0.00,,,0.00,Wunderground v.1.15,2013-04-06 22:27:00,
2013-04-06 18:33:00,60.7,33.6,30.25,SSE,166,8.0,8.0,36,0.00,,,0.00,Wunderground v.1.15,2013-04-06 22:33:00,
2013-04-06 18:38:00,60.7,32.1,30.25,South,187,6.0,9.0,34,0.00,,,0.00,Wunderground v.1.15,2013-04-06 22:38:00,
2013-04-06 18:43:00,60.5,32.7,30.25,SSE,168,7.0,9.0,35,0.00,,,0.00,Wunderground v.1.15,2013-04-06 22:43:00,
2013-04-06 18:49:00,60.4,32.6,30.25,SE,145,7.0,9.0,35,0.00,,,0.00,Wunderground v.1.15,2013-04-06 22:49:00,
2013-04-06 18:54:00,60.4,31.1,30.25,South,181,6.0,10.0,33,0.00,,,0.00,Wunderground v.1.15,2013-04-06 22:54:00,
2013-04-06 19:00:00,60.2,31.0,30.25,SSE,147,7.0,7.0,33,0.00,,,0.00,Wunderground v.1.15,2013-04-06 23:00:00,
2013-04-06 19:05:00,60.2,31.7,30.25,South,186,7.0,7.0,34,0.00,,,0.00,Wunderground v.1.15,2013-04-06 23:05:00,
2013-04-06 19:11:00,60.2,31.0,30.25,SSE,152,7.0,7.0,33,0.00,,,0.00,Wunderground v.1.15,2013-04-06 23:11:00,
2013-04-06 19:16:00,60.1,30.9,30.25,SSE,166,5.0,7.0,33,0.00,,,0.00,Wunderground v.1.15,2013-04-06 23:16:00,
2013-04-06 19:22:00,60.0,31.5,30.25,SSE,167,4.0,5.0,34,0.00,,,0.00,Wunderground v.1.15,2013-04-06 23:22:00,
2013-04-06 19:27:00,59.8,32.1,30.25,SSE,167,4.0,5.0,35,0.00,,,0.00,Wunderground v.1.15,2013-04-06 23:27:00,
2013-04-06 19:33:00,59.5,31.1,30.25,SSE,161,2.0,4.0,34,0.00,,,0.00,Wunderground v.1.15,2013-04-06 23:33:00,
2013-04-06 19:39:00,59.3,31.6,30.25,SSW,201,3.0,7.0,35,0.00,,,0.00,Wunderground v.1.15,2013-04-06 23:39:00,
2013-04-06 19:44:00,59.1,32.1,30.25,SSE,161,4.0,4.0,36,0.00,,,0.00,Wunderground v.1.15,2013-04-06 23:44:00,
2013-04-06 19:49:00,58.8,32.6,30.25,SSE,153,3.0,4.0,37,0.00,,,0.00,Wunderground v.1.15,2013-04-06 23:49:00,
2013-04-06 19:55:00,58.5,33.0,30.26,SSE,150,2.0,4.0,38,0.00,,,0.00,Wunderground v.1.15,2013-04-06 23:55:00,
2013-04-06 20:01:00,58.1,31.9,30.25,ESE,119,2.0,4.0,37,0.00,,,0.00,Wunderground v.1.15,2013-04-07 00:01:00,
2013-04-06 20:07:00,57.9,32.4,30.25,SE,125,2.0,4.0,38,0.00,,,0.00,Wunderground v.1.15,2013-04-07 00:07:00,
2013-04-06 20:12:00,57.8,32.3,30.26,ESE,119,2.0,4.0,38,0.00,,,0.00,Wunderground v.1.15,2013-04-07 00:12:00,
2013-04-06 20:18:00,57.5,33.3,30.26,SSE,150,2.0,4.0,40,0.00,,,0.00,Wunderground v.1.15,2013-04-07 00:18:00,
2013-04-06 20:23:00,57.2,32.4,30.26,SSE,159,2.0,4.0,39,0.00,,,0.00,Wunderground v.1.15,2013-04-07 00:23:00,
2013-04-06 20:29:00,57.1,32.4,30.26,SSE,159,1.0,4.0,39,0.00,,,0.00,Wunderground v.1.15,2013-04-07 00:29:00,
2013-04-06 20:34:00,57.0,32.3,30.26,SSE,159,1.0,4.0,39,0.00,,,0.00,Wunderground v.1.15,2013-04-07 00:34:00,
2013-04-06 20:39:00,56.7,32.6,30.25,SE,136,1.0,4.0,40,0.00,,,0.00,Wunderground v.1.15,2013-04-07 00:39:00,
2013-04-06 20:45:00,56.4,32.4,30.26,SE,136,1.0,4.0,40,0.00,,,0.00,Wunderground v.1.15,2013-04-07 00:45:00,
2013-04-06 20:51:00,56.0,33.2,30.25,SE,137,1.0,4.0,42,0.00,,,0.00,Wunderground v.1.15,2013-04-07 00:51:00,
2013-04-06 20:56:00,55.6,32.8,30.26,SE,137,1.0,4.0,42,0.00,,,0.00,Wunderground v.1.15,2013-04-07 00:56:00,
2013-04-06 21:02:00,55.4,33.3,30.26,SE,138,1.0,4.0,43,0.00,,,0.00,Wunderground v.1.15,2013-04-07 01:02:00,
2013-04-06 21:07:00,55.3,32.6,30.26,SSE,163,1.0,4.0,42,0.00,,,0.00,Wunderground v.1.15,2013-04-07 01:07:00,
2013-04-06 21:13:00,55.1,32.4,30.26,SSE,163,1.0,4.0,42,0.00,,,0.00,Wunderground v.1.15,2013-04-07 01:13:00,
2013-04-06 21:18:00,55.0,32.3,30.26,SSE,163,0.0,4.0,42,0.00,,,0.00,Wunderground v.1.15,2013-04-07 01:18:00,
2013-04-06 21:24:00,54.9,32.2,30.26,SSE,163,0.0,4.0,42,0.00,,,0.00,Wunderground v.1.15,2013-04-07 01:24:00,
2013-04-06 21:29:00,54.8,32.1,30.26,SSE,163,0.0,4.0,42,0.00,,,0.00,Wunderground v.1.15,2013-04-07 01:29:00,
2013-04-06 21:35:00,54.6,32.5,30.27,SSE,163,0.0,4.0,43,0.00,,,0.00,Wunderground v.1.15,2013-04-07 01:35:00,
2013-04-06 21:40:00,54.5,33.0,30.27,ESE,106,0.0,4.0,44,0.00,,,0.00,Wunderground v.1.15,2013-04-07 01:40:00,
2013-04-06 21:45:00,54.4,32.9,30.27,SE,138,0.0,4.0,44,0.00,,,0.00,Wunderground v.1.15,2013-04-07 01:45:00,
2013-04-06 21:50:00,54.2,32.7,30.27,SE,138,1.0,1.0,44,0.00,,,0.00,Wunderground v.1.15,2013-04-07 01:50:00,
2013-04-06 21:55:00,54.1,33.2,30.27,SE,145,1.0,4.0,45,0.00,,,0.00,Wunderground v.1.15,2013-04-07 01:55:00,
2013-04-06 22:00:00,54.0,33.7,30.27,SE,145,1.0,1.0,46,0.00,,,0.00,Wunderground v.1.15,2013-04-07 02:00:00,
2013-04-06 22:06:00,53.8,32.9,30.27,SSE,163,0.0,4.0,45,0.00,,,0.00,Wunderground v.1.15,2013-04-07 02:06:00,
2013-04-06 22:11:00,54.0,33.1,30.27,SE,140,1.0,4.0,45,0.00,,,0.00,Wunderground v.1.15,2013-04-07 02:11:00,
2013-04-06 22:17:00,54.0,33.7,30.27,SSE,156,1.0,4.0,46,0.00,,,0.00,Wunderground v.1.15,2013-04-07 02:17:00,
2013-04-06 22:23:00,54.1,32.6,30.27,SSW,198,1.0,4.0,44,0.00,,,0.00,Wunderground v.1.15,2013-04-07 02:23:00,